Time;durP1;ratioP1;P1;durP2;ratioP2;P2;SDS_P1;SDS_P2;PMS_P1;PMS_P2;Temp;Humidity;BMP_temperature;BMP_pressure;BME280_temperature;BME280_humidity;BME280_pressure;Samples;Min_cycle;Max_cycle;Signal;HPM_P1;HPM_P2
2020/12/27 00:01:30;;;;;;;;;;;;;;;;;;;;;
2020/12/27 00:04:09;;;;;;;1.73;0.93;;;16.70;46.90;;;;;;6107034;23;20157;-79
2020/12/27 00:06:57;;;;;;;3.28;1.27;;;16.70;47.00;;;;;;6103200;23;20727;-78
2020/12/27 00:09:34;;;;;;;2.40;1.40;;;16.60;46.90;;;;;;6142522;23;20212;-78
2020/12/27 00:12:45;;;;;;;1.23;1.02;;;16.70;46.90;;;;;;6169150;23;20151;-78
2020/12/27 00:15:17;;;;;;;2.78;1.33;;;16.60;47.00;;;;;;6119082;23;20151;-78
2020/12/27 00:18:05;;;;;;;2.42;1.40;;;16.70;46.90;;;;;;6093582;23;20155;-78
2020/12/27 00:20:50;;;;;;;3.05;1.40;;;16.70;47.00;;;;;;6122495;23;20167;-78
2020/12/27 00:23:29;;;;;;;1.80;1.00;;;16.70;46.90;;;;;;6118384;23;20151;-78
2020/12/27 00:26:01;;;;;;;4.07;1.42;;;16.70;47.00;;;;;;6117170;23;20177;-79
2020/12/27 00:28:31;;;;;;;2.08;1.00;;;16.70;47.00;;;;;;6118430;23;20198;-79
2020/12/27 00:31:38;;;;;;;1.83;0.88;;;16.60;47.00;;;;;;6094493;23;20233;-79
2020/12/27 00:34:22;;;;;;;1.70;0.98;;;16.70;47.20;;;;;;6118783;23;20151;-78
2020/12/27 00:37:30;;;;;;;2.03;0.95;;;16.70;47.10;;;;;;6142907;23;20139;-78
2020/12/27 00:40:11;;;;;;;1.45;1.02;;;16.70;47.20;;;;;;6144132;23;20167;-78
2020/12/27 00:42:38;;;;;;;1.98;1.17;;;16.60;47.00;;;;;;6117319;23;20155;-79
2020/12/27 00:45:07;;;;;;;2.83;1.17;;;16.60;46.90;;;;;;6094160;23;20478;-78
2020/12/27 00:47:43;;;;;;;1.58;1.00;;;16.70;46.90;;;;;;6094688;23;20175;-78
2020/12/27 00:50:35;;;;;;;1.73;1.08;;;16.70;47.00;;;;;;6092977;23;20177;-78
2020/12/27 00:53:07;;;;;;;2.15;1.20;;;16.70;47.20;;;;;;6093336;23;20163;-78
2020/12/27 00:56:05;;;;;;;1.33;1.15;;;16.70;47.10;;;;;;6117627;23;20190;-79
2020/12/27 00:58:55;;;;;;;1.70;1.10;;;16.70;47.10;;;;;;6097613;23;20151;-78
2020/12/27 01:01:56;;;;;;;2.85;1.20;;;16.60;47.00;;;;;;6096843;23;20618;-79
2020/12/27 01:05:05;;;;;;;2.97;1.30;;;16.60;47.10;;;;;;6000569;23;20149;-79
2020/12/27 01:07:41;;;;;;;2.50;1.52;;;16.60;47.10;;;;;;5940504;24;20189;-79
2020/12/27 01:10:46;;;;;;;1.90;1.00;;;16.70;47.20;;;;;;5942633;24;20162;-78
2020/12/27 01:13:25;;;;;;;2.53;1.25;;;16.60;47.10;;;;;;5963588;24;20776;-79
2020/12/27 01:16:36;;;;;;;2.35;1.23;;;16.60;47.30;;;;;;5963463;24;20193;-79
2020/12/27 01:19:17;;;;;;;2.55;1.13;;;16.60;47.30;;;;;;5881507;24;20157;-78
2020/12/27 01:21:55;;;;;;;1.70;1.02;;;16.60;47.30;;;;;;5885759;24;20165;-78
2020/12/27 01:24:50;;;;;;;2.75;1.58;;;16.60;47.20;;;;;;5866017;24;20172;-78
2020/12/27 01:27:36;;;;;;;2.25;1.33;;;16.60;47.30;;;;;;5866726;24;20633;-78
2020/12/27 01:30:05;;;;;;;3.58;1.20;;;16.60;47.20;;;;;;5864852;24;20166;-79
2020/12/27 01:33:00;;;;;;;2.83;1.25;;;16.60;47.10;;;;;;5886224;24;20150;-78
2020/12/27 01:35:28;;;;;;;3.08;1.00;;;16.60;47.20;;;;;;5906461;24;20187;-78
2020/12/27 01:38:05;;;;;;;2.65;1.10;;;16.70;47.20;;;;;;5907354;24;20161;-79
2020/12/27 01:40:53;;;;;;;1.25;1.08;;;16.70;47.10;;;;;;5945945;24;20202;-78
2020/12/27 01:43:42;;;;;;;2.67;1.35;;;16.70;47.20;;;;;;6048399;23;20149;-78
2020/12/27 01:46:18;;;;;;;2.45;0.90;;;16.60;47.80;;;;;;6076509;23;20232;-78
2020/12/27 01:49:04;;;;;;;1.40;1.23;;;16.60;47.20;;;;;;6076879;23;20193;-79
2020/12/27 01:51:45;;;;;;;1.83;1.30;;;16.60;47.30;;;;;;6047265;23;20185;-79
2020/12/27 01:54:18;;;;;;;1.63;1.05;;;16.60;47.30;;;;;;6114412;23;20143;-78
2020/12/27 01:57:34;;;;;;;1.17;0.90;;;16.70;47.30;;;;;;6110081;23;20195;-78
2020/12/27 02:00:11;;;;;;;2.88;1.30;;;16.60;47.30;;;;;;6112901;23;20192;-78
2020/12/27 02:06:33;;;;;;;1.35;1.15;;;16.60;47.30;;;;;;6139379;23;20159;-79
2020/12/27 02:09:03;;;;;;;2.10;1.05;;;16.70;47.30;;;;;;6090669;23;20207;-78
2020/12/27 02:11:32;;;;;;;2.03;1.45;;;16.60;47.20;;;;;;6065447;23;20178;-78
2020/12/27 02:14:12;;;;;;;3.05;1.30;;;16.60;47.30;;;;;;6089304;23;20159;-78
2020/12/27 02:17:12;;;;;;;2.13;1.20;;;16.60;47.40;;;;;;6085590;23;20206;-78
2020/12/27 02:20:05;;;;;;;2.70;1.40;;;16.60;47.40;;;;;;6094177;23;20267;-78
2020/12/27 02:22:39;;;;;;;2.03;1.23;;;16.70;47.40;;;;;;6091355;23;20156;-79
2020/12/27 02:28:25;;;;;;;1.25;1.00;;;16.70;47.40;;;;;;6117997;23;20152;-78
2020/12/27 02:31:27;;;;;;;2.33;1.17;;;16.60;47.30;;;;;;6073499;23;20152;-79
2020/12/27 02:33:58;;;;;;;1.63;1.10;;;16.60;47.40;;;;;;6073291;23;20155;-78
2020/12/27 02:36:34;;;;;;;1.98;1.30;;;16.60;47.30;;;;;;6088078;23;20549;-78
2020/12/27 02:39:19;;;;;;;;;;;;;;;;;;;;;
2020/12/27 02:41:53;;;;;;;2.90;1.38;;;16.60;47.40;;;;;;6138824;23;20164;-79
2020/12/27 02:47:32;;;;;;;1.33;1.00;;;16.60;47.40;;;;;;6138962;23;20467;-78
2020/12/27 02:50:10;;;;;;;2.70;1.33;;;16.60;47.60;;;;;;6137392;23;20178;-78
2020/12/27 02:52:51;;;;;;;1.98;1.40;;;16.60;47.50;;;;;;6140186;23;20527;-79
2020/12/27 02:55:22;;;;;;;1.35;1.00;;;16.60;47.30;;;;;;6068605;23;20655;-78
2020/12/27 02:57:52;;;;;;;3.72;1.30;;;16.60;47.40;;;;;;6114493;23;20233;-78
2020/12/27 03:00:39;;;;;;;2.83;1.58;;;16.60;47.40;;;;;;6068625;23;20186;-78
2020/12/27 03:03:15;;;;;;;1.70;1.00;;;16.60;47.60;;;;;;6072629;23;20471;-78
2020/12/27 03:05:48;;;;;;;2.05;0.80;;;16.60;47.60;;;;;;6142097;23;20155;-78
2020/12/27 03:08:23;;;;;;;1.80;1.25;;;16.50;47.50;;;;;;6092583;23;20128;-78
2020/12/27 03:10:55;;;;;;;3.03;1.13;;;16.60;47.60;;;;;;6090766;23;20162;-78
2020/12/27 03:13:27;;;;;;;1.45;1.25;;;16.60;47.50;;;;;;6089754;23;20152;-79
2020/12/27 03:16:22;;;;;;;2.55;1.33;;;16.50;47.50;;;;;;6114035;23;20164;-78
2020/12/27 03:18:58;;;;;;;2.30;1.00;;;16.50;47.50;;;;;;6117065;23;20183;-78
2020/12/27 03:21:37;;;;;;;2.28;1.23;;;16.60;47.60;;;;;;6090069;23;20172;-78
2020/12/27 03:24:14;;;;;;;1.75;0.95;;;16.60;47.60;;;;;;6092950;23;20128;-78
2020/12/27 03:26:44;;;;;;;2.55;1.25;;;16.60;47.60;;;;;;6092089;23;20650;-78
2020/12/27 03:29:24;;;;;;;2.60;1.48;;;16.60;47.60;;;;;;6090373;23;20156;-78
2020/12/27 03:31:59;;;;;;;2.85;1.23;;;16.60;47.50;;;;;;6090411;23;20175;-78
2020/12/27 03:34:47;;;;;;;3.65;1.45;;;16.60;47.60;;;;;;6092068;23;20163;-79
2020/12/27 03:37:38;;;;;;;;;;;;;;;;;;;;;
2020/12/27 03:40:11;;;;;;;2.65;1.40;;;16.50;47.60;;;;;;6031977;23;20545;-78
2020/12/27 03:43:00;;;;;;;1.77;1.13;;;16.50;47.60;;;;;;6090262;23;20152;-78
2020/12/27 03:45:36;;;;;;;1.65;1.45;;;16.50;47.70;;;;;;6088143;23;20152;-78
2020/12/27 03:48:04;;;;;;;1.63;1.25;;;16.60;47.60;;;;;;6091370;23;20144;-78
2020/12/27 03:50:36;;;;;;;1.08;0.93;;;16.50;47.60;;;;;;6088436;23;20183;-78
2020/12/27 03:53:05;;;;;;;1.73;1.25;;;16.50;47.70;;;;;;6090656;23;20183;-78
2020/12/27 03:55:34;;;;;;;1.90;1.30;;;16.60;48.50;;;;;;6067627;23;20604;-78
2020/12/27 03:58:13;;;;;;;1.60;1.30;;;16.50;47.80;;;;;;6067452;23;20159;-78
2020/12/27 04:00:43;;;;;;;1.95;1.17;;;16.50;47.80;;;;;;6115988;23;20226;-78
2020/12/27 04:03:14;;;;;;;1.63;1.00;;;16.50;47.80;;;;;;6066021;23;20159;-78
2020/12/27 04:05:45;;;;;;;2.25;1.63;;;16.50;47.80;;;;;;6067171;23;20152;-78
2020/12/27 04:08:22;;;;;;;1.42;0.88;;;16.50;47.80;;;;;;6091614;23;20148;-78
2020/12/27 04:10:55;;;;;;;2.97;1.08;;;16.50;47.70;;;;;;6070274;23;20152;-78
2020/12/27 04:13:34;;;;;;;3.28;1.30;;;16.50;47.80;;;;;;6088925;23;20497;-79
2020/12/27 04:16:12;;;;;;;1.98;1.20;;;16.50;47.80;;;;;;6139066;23;20160;-78
2020/12/27 04:18:49;;;;;;;2.17;1.15;;;16.50;47.80;;;;;;6140824;23;20155;-78
2020/12/27 04:21:30;;;;;;;1.63;1.00;;;16.50;47.80;;;;;;6140602;23;20183;-78
2020/12/27 04:24:08;;;;;;;2.20;1.00;;;16.50;47.80;;;;;;6114754;23;20257;-78
2020/12/27 04:26:54;;;;;;;1.38;1.10;;;16.50;47.80;;;;;;6113403;23;20180;-78
2020/12/27 04:29:25;;;;;;;1.75;1.15;;;16.50;47.80;;;;;;6111889;23;20152;-78
2020/12/27 04:31:55;;;;;;;1.85;1.20;;;16.50;47.80;;;;;;6139811;23;20155;-78
2020/12/27 04:34:21;;;;;;;2.22;1.17;;;16.50;47.90;;;;;;6139312;23;20152;-80
2020/12/27 04:36:47;;;;;;;2.08;1.30;;;16.50;47.90;;;;;;6114388;23;20175;-78
2020/12/27 04:39:18;;;;;;;1.20;1.10;;;16.50;47.80;;;;;;6090469;23;20179;-78
2020/12/27 04:41:49;;;;;;;1.67;1.23;;;16.50;47.90;;;;;;6140156;23;20175;-79
2020/12/27 04:44:19;;;;;;;3.08;1.00;;;16.50;47.80;;;;;;6089920;23;20177;-78
2020/12/27 04:46:50;;;;;;;1.30;1.10;;;16.50;47.70;;;;;;6066388;23;20220;-78
2020/12/27 04:49:29;;;;;;;2.42;1.20;;;16.50;47.80;;;;;;6090596;23;20580;-78
2020/12/27 04:51:55;;;;;;;2.00;1.10;;;16.50;47.90;;;;;;6067295;23;20156;-78
2020/12/27 04:54:29;;;;;;;2.28;1.10;;;16.50;47.80;;;;;;6090288;23;20471;-78
2020/12/27 04:57:01;;;;;;;2.08;1.08;;;16.50;47.80;;;;;;6066991;23;20199;-78
2020/12/27 04:59:34;;;;;;;1.92;1.10;;;16.50;47.90;;;;;;6066126;23;20159;-78
2020/12/27 05:02:00;;;;;;;1.20;1.10;;;16.50;47.80;;;;;;6064906;23;20483;-78
2020/12/27 05:04:27;;;;;;;2.13;1.15;;;16.50;47.80;;;;;;6066811;23;20163;-79
2020/12/27 05:06:56;;;;;;;1.83;1.20;;;16.50;47.80;;;;;;6067141;23;20159;-78
2020/12/27 05:09:26;;;;;;;1.73;1.17;;;16.50;47.80;;;;;;6090732;23;20505;-78
2020/12/27 05:11:55;;;;;;;3.13;1.40;;;16.40;47.90;;;;;;6066837;23;20148;-79
2020/12/27 05:14:24;;;;;;;2.10;1.30;;;16.50;47.90;;;;;;6113764;23;20136;-79
2020/12/27 05:17:09;;;;;;;2.97;1.20;;;16.50;48.10;;;;;;6090925;23;20128;-78
2020/12/27 05:19:39;;;;;;;1.80;1.33;;;16.50;47.80;;;;;;6114208;23;20638;-79
2020/12/27 05:22:11;;;;;;;1.73;1.08;;;16.50;48.00;;;;;;6140034;23;20155;-79
2020/12/27 05:24:46;;;;;;;1.98;1.05;;;16.50;48.00;;;;;;6139609;23;20144;-78
2020/12/27 05:27:16;;;;;;;1.90;1.02;;;16.50;47.80;;;;;;6114935;23;20128;-78
2020/12/27 05:29:47;;;;;;;1.88;1.20;;;16.50;47.90;;;;;;6140069;23;20159;-78
2020/12/27 05:32:22;;;;;;;2.60;1.10;;;16.50;48.00;;;;;;6113560;23;20159;-78
2020/12/27 05:35:10;;;;;;;1.10;0.98;;;16.50;48.00;;;;;;6114673;23;20179;-78
2020/12/27 05:37:43;;;;;;;1.60;1.10;;;16.50;48.60;;;;;;6113512;23;20487;-78
2020/12/27 05:40:10;;;;;;;1.45;1.05;;;16.40;48.10;;;;;;6113193;23;20211;-78
2020/12/27 05:42:42;;;;;;;1.17;1.02;;;16.40;48.00;;;;;;6140483;23;20136;-78
2020/12/27 05:45:23;;;;;;;1.90;1.10;;;16.40;48.20;;;;;;6115065;23;20124;-78
2020/12/27 05:48:03;;;;;;;1.40;1.15;;;16.40;48.20;;;;;;6112968;23;20206;-78
2020/12/27 05:50:32;;;;;;;1.40;0.90;;;16.40;48.00;;;;;;6113451;23;20187;-78
2020/12/27 05:53:07;;;;;;;1.30;1.20;;;16.40;48.10;;;;;;6114597;23;20137;-78
2020/12/27 05:55:42;;;;;;;2.05;1.10;;;16.50;48.20;;;;;;6089436;23;20183;-78
2020/12/27 05:58:20;;;;;;;2.40;1.38;;;16.40;48.10;;;;;;6093858;23;20223;-79
2020/12/27 06:01:06;;;;;;;1.55;1.10;;;16.40;48.20;;;;;;6114422;23;20227;-78
2020/12/27 06:04:04;;;;;;;1.30;1.10;;;16.40;48.10;;;;;;6090952;23;20140;-78
2020/12/27 06:07:14;;;;;;;1.92;1.00;;;16.50;48.20;;;;;;6112757;23;20485;-78
2020/12/27 06:10:01;;;;;;;1.98;1.20;;;16.40;48.10;;;;;;6138612;23;20211;-79
2020/12/27 06:12:57;;;;;;;1.95;1.30;;;16.50;48.20;;;;;;6113556;23;20159;-78
2020/12/27 06:15:36;;;;;;;1.63;1.10;;;16.40;48.20;;;;;;6021319;23;20154;-78
2020/12/27 06:18:30;;;;;;;1.90;1.20;;;16.50;48.20;;;;;;5998674;23;20162;-78
2020/12/27 06:21:14;;;;;;;1.45;1.00;;;16.40;48.20;;;;;;6021290;23;20182;-79
2020/12/27 06:23:52;;;;;;;2.72;1.30;;;16.40;48.20;;;;;;5996747;23;20463;-79
2020/12/27 06:26:44;;;;;;;2.00;1.02;;;16.40;48.10;;;;;;5997931;23;20147;-79
2020/12/27 06:29:15;;;;;;;1.35;0.93;;;16.40;48.10;;;;;;6021207;23;20139;-79
2020/12/27 06:31:40;;;;;;;1.30;1.20;;;16.40;48.10;;;;;;6021719;23;20177;-77
2020/12/27 06:35:06;;;;;;;3.25;1.27;;;16.40;48.20;;;;;;5998534;23;20627;-79
2020/12/27 06:55:24;;;;;;;;;;;;;;;;;;;;;
2020/12/27 08:01:21;;;;;;;;;;;;;;;;;;;;;
2020/12/27 08:04:26;;;;;;;1.95;1.10;;;16.50;48.10;;;;;;6057627;23;20180;-79
2020/12/27 08:39:01;;;;;;;1.73;1.13;;;16.50;48.00;;;;;;5797484;24;20167;-80
2020/12/27 08:41:57;;;;;;;1.83;1.13;;;16.50;48.20;;;;;;5796384;24;20262;-79
2020/12/27 08:48:53;;;;;;;1.63;0.90;;;16.50;47.90;;;;;;5796017;24;20695;-79
2020/12/27 08:51:37;;;;;;;1.83;0.90;;;16.60;47.90;;;;;;5882048;24;20188;-80
2020/12/27 08:55:01;;;;;;;;;;;;;;;;;;;;;
2020/12/27 09:40:24;;;;;;;1.55;1.20;;;16.60;48.00;;;;;;6045681;23;20181;-81
2020/12/27 09:50:11;;;;;;;1.95;1.10;;;16.60;47.80;;;;;;6045401;23;20213;-80
2020/12/27 09:53:07;;;;;;;2.70;1.10;;;16.50;47.90;;;;;;6020919;23;20165;-80
2020/12/27 09:55:54;;;;;;;1.20;1.05;;;16.50;48.00;;;;;;6022033;23;20213;-79
2020/12/27 09:59:01;;;;;;;1.52;1.17;;;16.60;48.20;;;;;;6019498;23;20184;-80
2020/12/27 10:04:53;;;;;;;1.60;1.00;;;16.60;48.10;;;;;;6020236;23;20194;-80
2020/12/27 10:07:19;;;;;;;1.50;1.00;;;16.60;48.00;;;;;;5996338;23;20134;-79
2020/12/27 10:09:53;;;;;;;2.72;1.40;;;16.60;48.00;;;;;;6056180;23;20190;-79
2020/12/27 10:12:20;;;;;;;1.27;1.10;;;16.60;47.80;;;;;;6109675;23;20213;-80
2020/12/27 10:14:49;;;;;;;3.00;1.20;;;16.70;48.30;;;;;;6111592;23;20167;-79
2020/12/27 10:17:15;;;;;;;1.77;1.10;;;16.70;47.80;;;;;;6110742;23;20133;-79
2020/12/27 10:20:24;;;;;;;2.60;1.10;;;16.70;47.90;;;;;;6110882;23;20147;-80
2020/12/27 10:23:05;;;;;;;1.40;1.30;;;16.70;47.80;;;;;;6019703;23;20158;-80
2020/12/27 10:25:43;;;;;;;1.23;1.10;;;16.70;47.90;;;;;;5999765;23;20162;-79
2020/12/27 10:28:10;;;;;;;1.38;1.27;;;16.60;47.90;;;;;;6020881;23;20210;-80
2020/12/27 10:30:37;;;;;;;3.00;1.20;;;16.70;47.90;;;;;;6019902;23;20614;-79
2020/12/27 10:33:53;;;;;;;2.35;1.33;;;16.60;47.80;;;;;;6021575;23;20139;-80
2020/12/27 10:36:18;;;;;;;1.60;1.35;;;16.70;47.70;;;;;;6022119;23;20142;-80
2020/12/27 10:38:46;;;;;;;2.42;1.40;;;16.70;47.60;;;;;;5997843;23;20479;-80
2020/12/27 10:41:13;;;;;;;1.45;1.10;;;16.70;47.60;;;;;;5997580;23;20183;-79
2020/12/27 10:43:54;;;;;;;1.05;0.95;;;16.70;47.60;;;;;;5999395;23;20199;-80
2020/12/27 10:46:19;;;;;;;2.05;1.08;;;16.80;47.60;;;;;;5998504;23;20151;-80
2020/12/27 10:48:47;;;;;;;3.33;1.40;;;16.80;47.70;;;;;;5999648;23;20461;-80
2020/12/27 10:51:14;;;;;;;2.15;1.40;;;16.80;47.70;;;;;;6021928;23;20647;-79
2020/12/27 10:53:42;;;;;;;2.83;1.45;;;16.70;47.80;;;;;;6021143;23;20154;-80
2020/12/27 10:56:24;;;;;;;3.17;1.10;;;16.80;47.80;;;;;;5998122;23;20151;-80
2020/12/27 10:58:50;;;;;;;2.33;1.25;;;16.80;47.80;;;;;;6010364;23;20146;-79
2020/12/27 11:01:15;;;;;;;1.40;1.30;;;16.80;47.60;;;;;;6114842;23;20187;-81
2020/12/27 11:03:41;;;;;;;3.50;1.40;;;16.90;47.50;;;;;;6139738;23;20143;-80
2020/12/27 11:06:10;;;;;;;2.92;1.27;;;16.90;47.60;;;;;;6140063;23;20156;-80
2020/12/27 11:08:36;;;;;;;3.83;1.30;;;16.90;47.60;;;;;;6140110;23;20139;-80
2020/12/27 11:11:04;;;;;;;2.70;1.27;;;16.80;47.60;;;;;;6139389;23;20136;-80
2020/12/27 11:13:33;;;;;;;8.77;1.42;;;16.80;47.70;;;;;;6113696;23;20140;-79
2020/12/27 11:16:02;;;;;;;2.75;1.20;;;16.80;47.60;;;;;;6139205;23;20140;-80
2020/12/27 11:18:28;;;;;;;6.07;1.40;;;16.80;47.60;;;;;;6112263;23;20300;-79
2020/12/27 11:20:58;;;;;;;10.85;1.90;;;16.80;47.60;;;;;;6113722;23;20160;-80
2020/12/27 11:23:24;;;;;;;10.35;1.85;;;16.80;47.80;;;;;;6111595;23;20148;-80
2020/12/27 11:25:51;;;;;;;9.35;1.45;;;16.80;47.80;;;;;;6139621;23;20135;-79
2020/12/27 11:28:17;;;;;;;4.07;1.30;;;16.80;47.80;;;;;;6114149;23;20148;-79
2020/12/27 11:30:43;;;;;;;5.90;1.50;;;16.80;47.80;;;;;;6113399;23;20140;-80
2020/12/27 11:33:09;;;;;;;16.27;2.20;;;16.80;47.70;;;;;;6111947;23;20140;-80
2020/12/27 11:35:35;;;;;;;8.20;1.70;;;16.80;47.80;;;;;;6137981;23;20139;-80
2020/12/27 11:38:29;;;;;;;9.63;2.65;;;16.90;47.80;;;;;;6137151;23;20163;-81
2020/12/27 11:44:22;;;;;;;15.65;2.30;;;16.90;47.70;;;;;;6138298;23;20268;-80
2020/12/27 11:47:24;;;;;;;23.40;2.80;;;16.90;47.80;;;;;;6132875;23;20226;-81
2020/12/27 11:50:26;;;;;;;27.65;2.83;;;16.90;48.00;;;;;;6139465;23;20136;-81
2020/12/27 11:53:10;;;;;;;19.73;2.30;;;16.90;48.00;;;;;;6138762;23;20218;-80
2020/12/27 11:55:43;;;;;;;21.50;2.90;;;16.90;48.00;;;;;;6137841;23;20156;-80
2020/12/27 11:58:09;;;;;;;14.73;2.60;;;16.90;48.10;;;;;;6139057;23;20191;-80
2020/12/27 12:00:54;;;;;;;19.25;2.80;;;16.80;48.00;;;;;;6139408;23;20208;-80
2020/12/27 12:03:44;;;;;;;17.02;2.30;;;16.90;48.00;;;;;;6138504;23;20238;-81
2020/12/27 12:06:13;;;;;;;16.13;2.50;;;16.90;47.90;;;;;;6113934;23;20227;-80
2020/12/27 12:08:40;;;;;;;12.15;2.30;;;16.90;47.90;;;;;;6114006;23;20652;-80
2020/12/27 12:11:23;;;;;;;7.03;1.85;;;16.90;47.90;;;;;;6113190;23;20201;-80
2020/12/27 12:14:00;;;;;;;12.57;2.00;;;16.90;47.80;;;;;;6138388;23;20143;-80
2020/12/27 12:16:27;;;;;;;11.38;1.92;;;16.90;47.70;;;;;;6111778;23;20159;-81
2020/12/27 12:18:58;;;;;;;6.97;2.10;;;16.90;47.90;;;;;;6138503;23;20557;-80
2020/12/27 12:21:34;;;;;;;19.60;2.30;;;17.00;47.70;;;;;;6113041;23;20187;-80
2020/12/27 12:24:05;;;;;;;18.45;2.20;;;16.90;47.80;;;;;;6137837;23;20171;-81
2020/12/27 12:26:36;;;;;;;11.45;2.28;;;16.90;47.80;;;;;;6138220;23;20148;-80
2020/12/27 12:29:02;;;;;;;14.18;2.10;;;16.90;47.90;;;;;;6111917;23;20160;-80
2020/12/27 12:31:34;;;;;;;7.28;1.80;;;16.90;48.00;;;;;;6139167;23;20684;-81
2020/12/27 12:34:28;;;;;;;19.98;2.33;;;16.90;47.90;;;;;;6139482;23;20280;-80
2020/12/27 12:37:11;;;;;;;12.98;2.10;;;16.90;47.90;;;;;;6068066;23;20202;-80
2020/12/27 12:40:04;;;;;;;16.02;2.20;;;16.90;47.80;;;;;;6137831;23;20136;-79
2020/12/27 12:42:39;;;;;;;15.95;2.38;;;16.90;48.00;;;;;;6137923;23;20218;-79
2020/12/27 12:45:24;;;;;;;13.07;2.00;;;16.90;48.00;;;;;;6137973;23;20143;-79
2020/12/27 12:47:50;;;;;;;14.68;2.20;;;16.90;48.10;;;;;;6131059;23;20164;-78
2020/12/27 12:50:15;;;;;;;9.68;2.08;;;16.90;48.10;;;;;;6136629;23;20133;-80
2020/12/27 12:52:51;;;;;;;11.50;2.25;;;16.90;48.20;;;;;;6063852;23;20205;-80
2020/12/27 12:55:56;;;;;;;13.77;2.03;;;16.80;48.30;;;;;;6136697;23;20132;-79
2020/12/27 12:58:31;;;;;;;6.68;1.63;;;16.90;48.30;;;;;;6021796;23;20157;-80
2020/12/27 13:04:50;;;;;;;11.43;2.10;;;16.80;48.30;;;;;;5999770;23;20155;-79
2020/12/27 13:07:36;;;;;;;10.35;2.17;;;16.80;48.40;;;;;;6009408;23;20151;-80
2020/12/27 13:10:50;;;;;;;14.30;2.40;;;16.80;48.40;;;;;;6019262;23;20519;-80
2020/12/27 13:13:32;;;;;;;7.80;1.70;;;16.80;48.30;;;;;;6020199;23;20234;-80
2020/12/27 13:16:04;;;;;;;8.60;1.85;;;16.90;48.30;;;;;;6020873;23;20158;-80
2020/12/27 13:18:48;;;;;;;8.50;1.75;;;16.90;48.30;;;;;;5997461;23;20194;-80
2020/12/27 13:21:16;;;;;;;10.32;1.73;;;16.90;48.30;;;;;;5997644;23;20206;-79
2020/12/27 13:23:46;;;;;;;9.30;2.35;;;16.90;48.10;;;;;;6022164;23;20587;-79
2020/12/27 13:26:19;;;;;;;9.00;2.10;;;17.00;48.10;;;;;;5996624;23;20142;-80
2020/12/27 13:50:17;;;;;;;6.45;2.00;;;17.10;47.80;;;;;;6107546;23;20187;-81
2020/12/27 14:16:31;;;;;;;9.55;2.38;;;17.10;48.10;;;;;;5993063;24;20165;-80
2020/12/27 14:22:49;;;;;;;8.15;2.05;;;17.10;48.10;;;;;;5987670;24;21190;-80
2020/12/27 14:25:18;;;;;;;6.32;1.80;;;17.00;48.20;;;;;;5918299;24;20158;-79
2020/12/27 14:27:47;;;;;;;4.00;1.67;;;17.10;48.20;;;;;;5942623;24;20148;-80
2020/12/27 14:30:18;;;;;;;6.00;1.75;;;17.00;48.20;;;;;;5943079;24;20620;-81
2020/12/27 14:33:14;;;;;;;;;;;;;;;;;;;;;
2020/12/27 14:36:07;;;;;;;4.88;2.10;;;17.10;48.20;;;;;;5944055;24;20187;-80
2020/12/27 14:38:39;;;;;;;9.00;1.60;;;17.10;48.00;;;;;;5941488;24;20227;-79
2020/12/27 14:41:07;;;;;;;10.88;2.20;;;17.10;47.90;;;;;;5964522;24;20263;-80
2020/12/27 14:43:33;;;;;;;5.10;2.08;;;17.10;48.00;;;;;;5941430;24;20156;-80
2020/12/27 14:46:04;;;;;;;5.35;1.65;;;17.10;48.10;;;;;;5965290;24;20167;-80
2020/12/27 14:48:30;;;;;;;5.35;1.77;;;17.10;48.00;;;;;;5982305;23;20143;-80
2020/12/27 14:50:56;;;;;;;6.82;2.00;;;17.10;47.90;;;;;;6108655;23;20220;-80
2020/12/27 14:53:34;;;;;;;6.40;1.90;;;17.10;47.90;;;;;;6109415;23;20137;-80
2020/12/27 17:52:24;;;;;;;7.82;2.45;;;16.80;49.20;;;;;;6140159;23;20167;-80
2020/12/27 20:11:04;;;;;;;;;;;;;;;;;;;;;
2020/12/27 20:18:03;;;;;;;4.95;2.20;;;16.60;49.90;;;;;;5960459;24;20237;-81
2020/12/27 21:38:48;;;;;;;6.57;2.60;;;16.60;49.90;;;;;;5851807;24;20262;-81
2020/12/27 22:51:19;;;;;;;;;;;;;;;;;;;;;
